createdAt,value
2023-01-15T00:02:26.671Z,6.90
2023-01-15T00:04:54.103Z,6.90
2023-01-15T00:07:21.969Z,6.80
2023-01-15T00:09:50.827Z,6.70
2023-01-15T00:12:18.200Z,6.70
2023-01-15T00:14:46.108Z,6.60
2023-01-15T00:17:13.370Z,6.50
2023-01-15T00:19:40.735Z,6.50
2023-01-15T00:22:08.077Z,6.50
2023-01-15T00:24:54.058Z,6.50
2023-01-15T00:27:39.811Z,6.40
2023-01-15T00:30:10.476Z,6.40
2023-01-15T00:32:42.131Z,6.40
2023-01-15T00:35:14.229Z,6.30
2023-01-15T00:37:42.161Z,6.30
2023-01-15T00:40:10.684Z,6.30
2023-01-15T00:42:38.064Z,6.30
2023-01-15T00:45:13.150Z,6.30
2023-01-15T00:47:42.142Z,6.30
2023-01-15T00:50:12.729Z,6.30
2023-01-15T00:52:40.035Z,6.30
2023-01-15T00:55:08.964Z,6.30
2023-01-15T00:57:37.736Z,6.20
2023-01-15T01:00:05.870Z,6.20
2023-01-15T01:02:33.268Z,6.20
2023-01-15T01:05:00.437Z,6.20
2023-01-15T01:07:27.716Z,6.20
2023-01-15T01:09:54.967Z,6.20
2023-01-15T01:12:23.780Z,6.20
2023-01-15T01:14:51.072Z,6.10
2023-01-15T01:17:18.276Z,6.10
2023-01-15T01:19:45.736Z,6.10
2023-01-15T01:22:13.218Z,6.00
2023-01-15T01:24:40.486Z,6.00
2023-01-15T01:27:07.881Z,6.00
2023-01-15T01:29:35.483Z,6.00
2023-01-15T01:32:04.342Z,6.00
2023-01-15T01:34:31.830Z,5.90
2023-01-15T01:36:59.368Z,5.90
2023-01-15T01:39:26.569Z,5.90
2023-01-15T01:41:54.366Z,5.90
2023-01-15T01:44:35.075Z,5.80
2023-01-15T01:47:19.190Z,5.80
2023-01-15T01:49:47.359Z,5.80
2023-01-15T01:52:20.140Z,5.90
2023-01-15T01:54:49.732Z,5.80
2023-01-15T01:57:18.496Z,5.80
2023-01-15T01:59:46.639Z,5.80
2023-01-15T02:02:14.454Z,5.90
2023-01-15T02:04:42.395Z,5.90
2023-01-15T02:07:09.672Z,5.90
2023-01-15T02:09:37.008Z,5.90
2023-01-15T02:12:17.333Z,5.90
2023-01-15T02:15:10.113Z,5.90
2023-01-15T02:18:13.245Z,5.90
2023-01-15T02:20:45.515Z,5.90
2023-01-15T02:23:38.414Z,5.90
2023-01-15T02:26:32.697Z,5.90
2023-01-15T02:29:01.101Z,5.90
2023-01-15T02:31:35.068Z,5.90
2023-01-15T02:34:03.701Z,5.90
2023-01-15T02:36:35.796Z,5.90
2023-01-15T02:39:08.321Z,5.90
2023-01-15T02:41:52.502Z,5.90
2023-01-15T02:44:22.606Z,5.90
2023-01-15T02:46:50.307Z,5.90
2023-01-15T02:49:22.432Z,6.00
2023-01-15T02:51:57.347Z,6.00
2023-01-15T02:54:27.910Z,6.00
2023-01-15T02:56:58.227Z,6.00
2023-01-15T02:59:32.106Z,6.00
2023-01-15T03:02:02.700Z,6.00
2023-01-15T03:04:36.515Z,6.00
2023-01-15T03:07:19.094Z,6.00
2023-01-15T03:09:48.538Z,6.10
2023-01-15T03:12:33.343Z,6.00
2023-01-15T03:15:04.755Z,6.10
2023-01-15T03:17:56.249Z,6.10
2023-01-15T03:20:29.461Z,6.10
2023-01-15T03:23:02.908Z,6.10
2023-01-15T03:25:42.938Z,6.10
2023-01-15T03:28:12.320Z,6.10
2023-01-15T03:30:39.775Z,6.10
2023-01-15T03:33:11.891Z,6.10
2023-01-15T03:35:58.935Z,6.10
2023-01-15T03:38:32.678Z,6.10
2023-01-15T03:41:33.737Z,6.10
2023-01-15T03:44:38.623Z,6.10
2023-01-15T03:47:35.549Z,6.10
2023-01-15T03:50:32.298Z,6.00
2023-01-15T03:53:15.739Z,6.00
2023-01-15T03:55:55.174Z,6.00
2023-01-15T03:58:37.332Z,6.00
2023-01-15T04:01:11.497Z,6.00
2023-01-15T04:03:39.757Z,6.00
2023-01-15T04:06:08.464Z,6.00
2023-01-15T04:08:39.890Z,6.00
2023-01-15T04:11:08.155Z,6.00
2023-01-15T04:13:36.100Z,6.00
2023-01-15T04:16:03.726Z,5.90
2023-01-15T04:18:31.246Z,5.90
2023-01-15T04:20:58.610Z,5.90
2023-01-15T04:23:25.869Z,5.90
2023-01-15T04:25:53.057Z,5.90
2023-01-15T04:28:20.481Z,5.90
2023-01-15T04:30:47.732Z,6.00
2023-01-15T04:33:15.027Z,6.00
2023-01-15T04:35:42.434Z,6.00
2023-01-15T04:38:09.650Z,6.00
2023-01-15T04:40:55.519Z,6.00
2023-01-15T04:43:41.810Z,6.00
2023-01-15T04:46:09.295Z,6.00
2023-01-15T04:48:36.693Z,6.00
2023-01-15T04:51:04.896Z,6.00
2023-01-15T04:53:32.807Z,6.00
2023-01-15T04:56:05.295Z,6.10
2023-01-15T04:58:33.133Z,6.10
2023-01-15T05:01:01.355Z,6.10
2023-01-15T05:03:29.905Z,6.10
2023-01-15T05:06:02.838Z,6.10
2023-01-15T05:08:30.451Z,6.10
2023-01-15T05:11:03.033Z,6.10
2023-01-15T05:13:32.478Z,6.10
2023-01-15T05:16:18.125Z,6.10
2023-01-15T05:18:47.879Z,6.10
2023-01-15T05:21:18.535Z,6.20
2023-01-15T05:23:46.129Z,6.20
2023-01-15T05:26:13.768Z,6.20
2023-01-15T05:28:40.857Z,6.20
2023-01-15T05:31:10.478Z,6.20
2023-01-15T05:33:38.428Z,6.20
2023-01-15T05:36:09.648Z,6.20
2023-01-15T05:38:37.561Z,6.20
2023-01-15T05:41:29.198Z,6.20
2023-01-15T05:43:57.778Z,6.20
2023-01-15T05:46:25.446Z,6.10
2023-01-15T05:48:52.829Z,6.10
2023-01-15T05:51:20.005Z,6.10
2023-01-15T05:53:47.131Z,6.20
2023-01-15T05:56:14.595Z,6.20
2023-01-15T05:58:41.950Z,6.10
2023-01-15T06:01:10.821Z,6.10
2023-01-15T06:03:38.833Z,6.20
2023-01-15T06:06:06.319Z,6.10
2023-01-15T06:08:33.535Z,6.10
2023-01-15T06:11:00.618Z,6.10
2023-01-15T06:13:27.770Z,6.10
2023-01-15T06:15:55.750Z,6.10
2023-01-15T06:18:24.432Z,6.10
2023-01-15T06:20:51.639Z,6.10
2023-01-15T06:23:19.771Z,6.10
2023-01-15T06:25:47.647Z,6.10
2023-01-15T06:28:14.743Z,6.10
2023-01-15T06:30:42.035Z,6.10
2023-01-15T06:33:09.195Z,6.20
2023-01-15T06:35:36.595Z,6.10
2023-01-15T06:38:04.180Z,6.20
2023-01-15T06:40:31.398Z,6.20
2023-01-15T06:43:18.522Z,6.20
2023-01-15T06:46:04.730Z,6.20
2023-01-15T06:48:31.894Z,6.20
2023-01-15T06:50:59.806Z,6.20
2023-01-15T06:53:27.215Z,6.20
2023-01-15T06:55:54.481Z,6.20
2023-01-15T06:58:22.741Z,6.20
2023-01-15T07:00:56.299Z,6.20
2023-01-15T07:03:25.311Z,6.20
2023-01-15T07:05:53.356Z,6.20
2023-01-15T07:08:20.859Z,6.20
2023-01-15T07:10:48.453Z,6.10
2023-01-15T07:13:16.466Z,6.10
2023-01-15T07:15:43.870Z,6.10
2023-01-15T07:18:11.025Z,6.10
2023-01-15T07:20:38.541Z,6.10
2023-01-15T07:23:06.020Z,6.10
2023-01-15T07:25:33.723Z,6.10
2023-01-15T07:28:01.279Z,6.10
2023-01-15T07:30:28.549Z,6.10
2023-01-15T07:32:57.645Z,6.10
2023-01-15T07:35:24.954Z,6.10
2023-01-15T07:37:53.266Z,6.10
2023-01-15T07:40:21.120Z,6.20
2023-01-15T07:43:06.938Z,6.20
2023-01-15T07:46:06.090Z,6.20
2023-01-15T07:48:52.476Z,6.20
2023-01-15T07:51:20.381Z,6.20
2023-01-15T07:53:47.939Z,6.20
2023-01-15T07:56:15.819Z,6.20
2023-01-15T07:58:45.512Z,6.20
2023-01-15T08:01:13.679Z,6.20
2023-01-15T08:03:41.303Z,6.30
2023-01-15T08:06:09.062Z,6.30
2023-01-15T08:08:36.671Z,6.30
2023-01-15T08:11:22.782Z,6.30
2023-01-15T08:14:08.554Z,6.40
2023-01-15T08:16:37.358Z,6.40
2023-01-15T08:19:05.172Z,6.40
2023-01-15T08:21:32.791Z,6.40
2023-01-15T08:24:00.319Z,6.40
2023-01-15T08:26:27.784Z,6.40
2023-01-15T08:28:55.329Z,6.40
2023-01-15T08:31:23.031Z,6.50
2023-01-15T08:33:51.178Z,6.50
2023-01-15T08:36:19.527Z,6.60
2023-01-15T08:38:50.189Z,6.70
2023-01-15T08:43:46.504Z,6.70
2023-01-15T08:46:14.177Z,6.80
2023-01-15T08:48:41.621Z,6.80
2023-01-15T08:51:10.514Z,6.80
2023-01-15T08:53:38.471Z,6.80
2023-01-15T08:56:12.479Z,6.80
2023-01-15T08:58:40.992Z,6.80
2023-01-15T09:01:10.884Z,6.90
2023-01-15T09:03:38.813Z,6.80
2023-01-15T09:06:06.514Z,6.80
2023-01-15T09:08:33.966Z,6.80
2023-01-15T09:11:02.935Z,6.80
2023-01-15T09:13:33.384Z,6.80
2023-01-15T09:16:01.543Z,6.80
2023-01-15T09:18:29.203Z,6.80
2023-01-15T09:20:57.172Z,6.80
2023-01-15T09:23:25.272Z,6.80
2023-01-15T09:25:58.807Z,6.80
2023-01-15T09:28:26.284Z,6.80
2023-01-15T09:30:53.697Z,6.80
2023-01-15T09:33:21.706Z,6.80
2023-01-15T09:35:49.637Z,6.70
2023-01-15T09:38:19.433Z,6.70
2023-01-15T09:41:00.072Z,6.70
2023-01-15T09:43:50.588Z,6.80
2023-01-15T09:46:23.730Z,6.80
2023-01-15T09:49:32.585Z,6.70
2023-01-15T09:52:08.645Z,6.80
2023-01-15T09:54:39.264Z,6.90
2023-01-15T09:57:14.537Z,6.90
2023-01-15T09:59:43.628Z,6.80
2023-01-15T10:02:50.413Z,6.80
2023-01-15T10:05:29.525Z,6.90
2023-01-15T10:08:00.115Z,7.00
2023-01-15T10:10:34.553Z,7.00
2023-01-15T10:13:17.860Z,7.00
2023-01-15T10:15:47.325Z,7.20
2023-01-15T10:18:21.328Z,7.30
2023-01-15T10:21:14.766Z,7.40
2023-01-15T10:24:21.665Z,7.60
2023-01-15T10:26:55.659Z,7.70
2023-01-15T10:29:44.351Z,7.80
2023-01-15T10:32:14.836Z,7.90
2023-01-15T10:34:43.156Z,7.80
2023-01-15T10:37:31.080Z,7.80
2023-01-15T10:40:27.692Z,7.80
2023-01-15T10:43:16.386Z,7.80
2023-01-15T10:45:53.928Z,7.80
2023-01-15T10:48:33.958Z,7.80
2023-01-15T10:51:05.522Z,7.70
2023-01-15T10:53:35.981Z,7.60
2023-01-15T10:56:18.637Z,7.70
2023-01-15T10:59:27.911Z,7.60
2023-01-15T11:01:58.131Z,7.50
2023-01-15T11:04:29.191Z,7.50
2023-01-15T11:06:56.831Z,7.50
2023-01-15T11:09:35.819Z,7.40
2023-01-15T11:12:20.184Z,7.50
2023-01-15T11:15:06.839Z,7.60
2023-01-15T11:17:59.860Z,7.80
2023-01-15T11:20:45.438Z,7.70
2023-01-15T11:23:20.219Z,7.60
2023-01-15T11:25:55.502Z,7.80
2023-01-15T11:28:53.379Z,7.80
2023-01-15T11:31:21.456Z,7.90
2023-01-15T11:34:06.481Z,7.90
2023-01-15T11:36:34.749Z,8.00
2023-01-15T11:39:02.945Z,7.80
2023-01-15T11:41:54.674Z,7.70
2023-01-15T11:44:43.217Z,7.60
2023-01-15T11:47:34.209Z,7.60
2023-01-15T11:50:19.987Z,7.50
2023-01-15T11:52:58.183Z,7.40
2023-01-15T11:55:28.373Z,7.40
2023-01-15T11:57:57.664Z,7.40
2023-01-15T12:00:32.910Z,7.40
2023-01-15T12:03:13.706Z,7.30
2023-01-15T12:05:48.404Z,7.40
2023-01-15T12:08:38.062Z,7.30
2023-01-15T12:11:26.340Z,7.30
2023-01-15T12:14:29.632Z,7.30
2023-01-15T12:17:18.593Z,7.30
2023-01-15T12:20:12.476Z,7.40
2023-01-15T12:23:22.255Z,7.30
2023-01-15T12:26:35.895Z,7.20
2023-01-15T12:29:23.508Z,7.20
2023-01-15T12:32:05.036Z,7.10
2023-01-15T12:34:47.677Z,7.10
2023-01-15T12:37:33.392Z,7.20
2023-01-15T12:40:20.030Z,7.30
2023-01-15T12:43:11.491Z,7.30
2023-01-15T12:45:43.386Z,7.30
2023-01-15T12:48:27.723Z,7.30
2023-01-15T12:51:02.860Z,7.20
2023-01-15T12:53:45.731Z,7.20
2023-01-15T12:56:22.794Z,7.20
2023-01-15T12:58:52.311Z,7.20
2023-01-15T13:01:27.280Z,7.20
2023-01-15T13:04:06.567Z,7.20
2023-01-15T13:06:37.965Z,7.20
2023-01-15T13:09:18.969Z,7.10
2023-01-15T13:11:46.444Z,7.20
2023-01-15T13:14:18.157Z,7.20
2023-01-15T13:16:54.676Z,7.20
2023-01-15T13:19:33.228Z,7.30
2023-01-15T13:22:13.076Z,7.40
2023-01-15T13:25:12.438Z,7.40
2023-01-15T13:28:24.547Z,7.40
2023-01-15T13:30:55.197Z,7.40
2023-01-15T13:33:44.637Z,7.40
2023-01-15T13:36:18.223Z,7.40
2023-01-15T13:38:54.844Z,7.40
2023-01-15T13:41:53.257Z,7.40
2023-01-15T13:44:22.452Z,7.40
2023-01-15T13:47:10.177Z,7.40
2023-01-15T13:50:17.739Z,7.30
2023-01-15T13:53:20.584Z,7.30
2023-01-15T13:56:20.433Z,7.30
2023-01-15T13:59:02.996Z,7.40
2023-01-15T14:01:38.541Z,7.30
2023-01-15T14:04:18.675Z,7.30
2023-01-15T14:06:54.500Z,7.30
2023-01-15T14:09:24.696Z,7.30
2023-01-15T14:12:14.854Z,7.30
2023-01-15T14:15:21.933Z,7.30
2023-01-15T14:18:21.544Z,7.30
2023-01-15T14:21:11.526Z,7.30
2023-01-15T14:23:53.647Z,7.30
2023-01-15T14:26:47.794Z,7.30
2023-01-15T14:29:51.868Z,7.30
2023-01-15T14:32:32.075Z,7.30
2023-01-15T14:35:03.119Z,7.30
2023-01-15T14:37:55.632Z,7.30
2023-01-15T14:40:33.582Z,7.30
2023-01-15T14:43:10.839Z,7.30
2023-01-15T14:45:42.846Z,7.30
2023-01-15T14:48:28.932Z,7.20
2023-01-15T14:51:16.149Z,7.20
2023-01-15T14:53:53.299Z,7.20
2023-01-15T14:56:42.585Z,7.20
2023-01-15T14:59:15.530Z,7.20
2023-01-15T15:01:51.313Z,7.20
2023-01-15T15:04:54.348Z,7.00
2023-01-15T15:07:28.954Z,7.10
2023-01-15T15:09:56.850Z,7.10
2023-01-15T15:12:27.432Z,7.00
2023-01-15T15:15:22.698Z,7.00
2023-01-15T15:18:08.644Z,6.80
2023-01-15T15:20:55.688Z,6.80
2023-01-15T15:24:10.814Z,6.60
2023-01-15T15:26:41.475Z,6.40
2023-01-15T15:29:20.265Z,6.30
2023-01-15T15:31:57.603Z,6.20
2023-01-15T15:34:36.036Z,6.20
2023-01-15T15:37:07.124Z,6.20
2023-01-15T15:39:54.176Z,6.30
2023-01-15T15:42:56.862Z,6.40
2023-01-15T15:45:50.930Z,6.40
2023-01-15T15:48:45.491Z,6.50
2023-01-15T15:51:29.491Z,6.50
2023-01-15T15:54:12.677Z,6.60
2023-01-15T15:57:10.197Z,6.60
2023-01-15T15:59:44.214Z,6.60
2023-01-15T16:02:42.291Z,6.60
2023-01-15T16:05:24.271Z,6.80
2023-01-15T16:07:52.830Z,6.70
2023-01-15T16:10:35.688Z,6.70
2023-01-15T16:13:08.068Z,6.70
2023-01-15T16:15:41.804Z,6.70
2023-01-15T16:18:31.968Z,6.70
2023-01-15T16:20:59.561Z,6.70
2023-01-15T16:23:29.313Z,6.70
2023-01-15T16:26:02.204Z,6.70
2023-01-15T16:28:46.554Z,6.70
2023-01-15T16:31:16.564Z,6.70
2023-01-15T16:33:44.517Z,6.50
2023-01-15T16:36:12.235Z,6.60
2023-01-15T16:38:48.336Z,6.60
2023-01-15T16:41:27.608Z,6.60
2023-01-15T16:44:01.617Z,6.60
2023-01-15T16:46:36.368Z,6.60
2023-01-15T16:49:30.335Z,6.70
2023-01-15T16:51:59.738Z,6.90
2023-01-15T16:54:30.296Z,6.70
2023-01-15T16:57:03.031Z,6.80
2023-01-15T16:59:32.949Z,6.80
2023-01-15T17:02:17.429Z,6.80
2023-01-15T17:04:46.195Z,6.70
2023-01-15T17:07:39.010Z,6.70
2023-01-15T17:10:20.563Z,6.70
2023-01-15T17:12:49.572Z,6.70
2023-01-15T17:15:17.458Z,6.70
2023-01-15T17:17:53.780Z,6.70
2023-01-15T17:20:28.469Z,6.70
2023-01-15T17:22:56.856Z,6.70
2023-01-15T17:25:28.024Z,6.60
2023-01-15T17:27:56.331Z,6.60
2023-01-15T17:30:31.677Z,6.60
2023-01-15T17:33:00.386Z,6.50
2023-01-15T17:35:36.756Z,6.50
2023-01-15T17:38:05.299Z,6.60
2023-01-15T17:40:33.620Z,6.60
2023-01-15T17:43:02.437Z,6.60
2023-01-15T17:45:34.961Z,6.60
2023-01-15T17:48:04.752Z,6.60
2023-01-15T17:50:32.526Z,6.70
2023-01-15T17:53:00.357Z,6.70
2023-01-15T17:55:47.020Z,6.80
2023-01-15T17:58:34.475Z,6.80
2023-01-15T18:01:24.246Z,6.80
2023-01-15T18:04:12.230Z,6.80
2023-01-15T18:06:43.950Z,6.80
2023-01-15T18:09:15.277Z,6.80
2023-01-15T18:11:43.263Z,7.00
2023-01-15T18:14:11.764Z,6.90
2023-01-15T18:16:39.774Z,6.90
2023-01-15T18:19:07.999Z,6.90
2023-01-15T18:21:39.528Z,6.80
2023-01-15T18:24:10.367Z,6.80
2023-01-15T18:26:41.928Z,6.80
2023-01-15T18:29:12.144Z,6.80
2023-01-15T18:31:41.534Z,6.80
2023-01-15T18:34:09.632Z,6.90
2023-01-15T18:36:37.564Z,6.70
2023-01-15T18:39:12.049Z,6.70
2023-01-15T18:41:41.411Z,6.70
2023-01-15T18:44:35.934Z,6.70
2023-01-15T18:47:09.026Z,6.70
2023-01-15T18:49:37.884Z,6.80
2023-01-15T18:52:23.759Z,6.80
2023-01-15T18:54:51.129Z,6.70
2023-01-15T18:57:18.920Z,6.70
2023-01-15T18:59:49.386Z,6.70
2023-01-15T19:02:18.321Z,6.70
2023-01-15T19:04:47.170Z,6.80
2023-01-15T19:07:15.118Z,6.80
2023-01-15T19:09:42.821Z,6.80
2023-01-15T19:12:10.056Z,6.70
2023-01-15T19:14:57.047Z,6.80
2023-01-15T19:17:44.875Z,6.80
2023-01-15T19:20:15.895Z,6.80
2023-01-15T19:23:06.964Z,6.70
2023-01-15T19:25:41.107Z,6.70
2023-01-15T19:28:11.294Z,6.70
2023-01-15T19:30:40.261Z,6.60
2023-01-15T19:33:09.533Z,6.40
2023-01-15T19:35:39.758Z,6.20
2023-01-15T19:38:08.924Z,6.10
2023-01-15T19:40:40.725Z,6.00
2023-01-15T19:43:28.483Z,6.00
2023-01-15T19:46:14.672Z,5.90
2023-01-15T19:49:01.110Z,6.00
2023-01-15T19:51:48.778Z,6.10
2023-01-15T19:54:36.118Z,6.10
2023-01-15T19:57:03.632Z,6.20
2023-01-15T19:59:32.148Z,6.20
2023-01-15T20:02:02.984Z,6.30
2023-01-15T20:04:31.599Z,6.30
2023-01-15T20:06:59.295Z,6.30
2023-01-15T20:09:26.680Z,6.40
2023-01-15T20:12:12.676Z,6.40
2023-01-15T20:14:40.228Z,6.40
2023-01-15T20:17:07.958Z,6.40
2023-01-15T20:19:35.237Z,6.40
2023-01-15T20:22:02.855Z,6.40
2023-01-15T20:24:31.076Z,6.40
2023-01-15T20:26:59.641Z,6.40
2023-01-15T20:29:27.266Z,6.40
2023-01-15T20:31:57.174Z,6.40
2023-01-15T20:34:25.992Z,6.40
2023-01-15T20:36:53.723Z,6.40
2023-01-15T20:39:21.125Z,6.40
2023-01-15T20:42:08.225Z,6.30
2023-01-15T20:44:54.206Z,6.30
2023-01-15T20:47:42.138Z,6.30
2023-01-15T20:50:11.422Z,6.30
2023-01-15T20:52:41.643Z,6.30
2023-01-15T20:55:10.243Z,6.30
2023-01-15T20:57:39.226Z,6.30
2023-01-15T21:00:11.509Z,6.30
2023-01-15T21:02:40.055Z,6.30
2023-01-15T21:05:09.279Z,6.30
2023-01-15T21:07:38.203Z,6.30
2023-01-15T21:10:09.175Z,6.30
2023-01-15T21:12:38.122Z,6.30
2023-01-15T21:15:07.620Z,6.30
2023-01-15T21:17:36.017Z,6.30
2023-01-15T21:20:04.928Z,6.30
2023-01-15T21:22:32.397Z,6.30
2023-01-15T21:25:00.347Z,6.30
2023-01-15T21:27:28.060Z,6.30
2023-01-15T21:29:56.833Z,6.30
2023-01-15T21:32:25.600Z,6.20
2023-01-15T21:34:54.154Z,6.20
2023-01-15T21:37:22.690Z,6.10
2023-01-15T21:39:50.503Z,6.10
2023-01-15T21:42:39.930Z,6.00
2023-01-15T21:45:10.325Z,6.00
2023-01-15T21:47:38.413Z,6.00
2023-01-15T21:50:07.073Z,6.00
2023-01-15T21:52:35.129Z,6.00
2023-01-15T21:55:02.679Z,5.80
2023-01-15T21:57:30.846Z,6.00
2023-01-15T21:59:58.428Z,6.00
2023-01-15T22:02:25.981Z,6.00
2023-01-15T22:04:53.540Z,6.10
2023-01-15T22:07:21.501Z,6.10
2023-01-15T22:09:49.072Z,6.10
2023-01-15T22:12:16.713Z,6.20
2023-01-15T22:14:44.271Z,6.20
2023-01-15T22:17:12.814Z,6.20
2023-01-15T22:19:40.274Z,6.10
2023-01-15T22:22:10.574Z,6.20
2023-01-15T22:24:39.621Z,6.20
2023-01-15T22:27:08.540Z,6.20
2023-01-15T22:29:40.637Z,6.20
2023-01-15T22:32:10.402Z,6.20
2023-01-15T22:34:38.258Z,6.10
2023-01-15T22:37:06.788Z,6.10
2023-01-15T22:39:34.433Z,6.10
2023-01-15T22:42:21.045Z,6.10
2023-01-15T22:44:49.209Z,6.10
2023-01-15T22:47:18.138Z,6.10
2023-01-15T22:49:45.693Z,6.10
2023-01-15T22:52:13.077Z,6.20
2023-01-15T22:54:45.057Z,6.20
2023-01-15T22:57:13.619Z,6.10
2023-01-15T22:59:42.797Z,6.10
2023-01-15T23:02:11.767Z,6.10
2023-01-15T23:04:39.438Z,6.00
2023-01-15T23:07:07.195Z,6.00
2023-01-15T23:09:35.161Z,6.00
2023-01-15T23:12:02.591Z,5.90
2023-01-15T23:14:29.917Z,5.90
2023-01-15T23:16:57.166Z,5.90
2023-01-15T23:19:27.946Z,5.90
2023-01-15T23:21:55.973Z,5.90
2023-01-15T23:24:23.582Z,5.80
2023-01-15T23:26:51.364Z,5.80
2023-01-15T23:29:18.789Z,5.80
2023-01-15T23:31:46.168Z,5.80
2023-01-15T23:34:14.063Z,5.70
2023-01-15T23:36:41.480Z,5.70
2023-01-15T23:39:09.305Z,5.70
2023-01-15T23:41:55.437Z,5.70
2023-01-15T23:44:42.018Z,5.70
2023-01-15T23:47:09.715Z,5.70
2023-01-15T23:49:37.558Z,5.80
2023-01-15T23:52:05.331Z,5.80
2023-01-15T23:54:33.586Z,5.80
2023-01-15T23:57:02.452Z,5.80
2023-01-15T23:59:30.462Z,5.80
